createdAt,value
2023-04-09T00:00:50.603Z,16.40
2023-04-09T00:03:18.816Z,11.00
2023-04-09T00:05:46.903Z,15.00
2023-04-09T00:08:14.542Z,15.00
2023-04-09T00:10:42.281Z,19.00
2023-04-09T00:13:10.077Z,6.80
2023-04-09T00:15:37.797Z,13.80
2023-04-09T00:18:05.740Z,13.00
2023-04-09T00:20:33.492Z,16.80
2023-04-09T00:23:01.510Z,14.80
2023-04-09T00:25:29.659Z,12.60
2023-04-09T00:27:57.698Z,13.00
2023-04-09T00:30:25.429Z,13.00
2023-04-09T00:32:53.136Z,4.60
2023-04-09T00:35:20.852Z,11.20
2023-04-09T00:37:48.410Z,13.00
2023-04-09T00:40:16.049Z,11.80
2023-04-09T00:42:43.780Z,10.00
2023-04-09T00:45:11.392Z,8.60
2023-04-09T00:47:39.540Z,10.00
2023-04-09T00:50:07.233Z,6.40
2023-04-09T00:52:35.214Z,10.00
2023-04-09T00:55:03.286Z,2.60
2023-04-09T00:57:31.032Z,13.00
2023-04-09T00:59:58.643Z,7.00
2023-04-09T01:02:26.345Z,12.00
2023-04-09T01:04:54.397Z,6.80
2023-04-09T01:07:22.078Z,12.00
2023-04-09T01:09:50.121Z,5.60
2023-04-09T01:12:17.785Z,12.60
2023-04-09T01:14:45.444Z,7.00
2023-04-09T01:17:13.389Z,8.00
2023-04-09T01:19:41.494Z,9.00
2023-04-09T01:22:09.108Z,7.00
2023-04-09T01:24:36.723Z,9.00
2023-04-09T01:27:04.356Z,10.80
2023-04-09T01:29:32.339Z,7.40
2023-04-09T01:31:59.904Z,10.80
2023-04-09T01:34:27.560Z,12.00
2023-04-09T01:36:55.226Z,12.00
2023-04-09T01:39:22.833Z,6.00
2023-04-09T01:41:50.766Z,7.60
2023-04-09T01:44:18.607Z,9.40
2023-04-09T01:46:46.211Z,4.00
2023-04-09T01:49:13.873Z,5.20
2023-04-09T01:51:41.488Z,6.00
2023-04-09T01:54:09.764Z,8.60
2023-04-09T01:56:37.479Z,7.00
2023-04-09T01:59:05.069Z,9.20
2023-04-09T02:01:32.742Z,7.80
2023-04-09T02:04:00.553Z,6.60
2023-04-09T02:06:28.760Z,6.00
2023-04-09T02:08:56.347Z,7.00
2023-04-09T02:11:23.973Z,5.40
2023-04-09T02:13:51.610Z,7.40
2023-04-09T02:16:19.855Z,2.20
2023-04-09T02:18:47.978Z,6.00
2023-04-09T02:21:15.583Z,7.80
2023-04-09T02:23:58.460Z,9.00
2023-04-09T02:26:26.072Z,9.60
2023-04-09T02:28:54.103Z,11.20
2023-04-09T02:31:22.231Z,9.20
2023-04-09T02:33:49.844Z,7.00
2023-04-09T02:36:17.436Z,9.60
2023-04-09T02:38:45.080Z,6.40
2023-04-09T02:41:12.716Z,10.00
2023-04-09T02:43:40.333Z,7.80
2023-04-09T02:46:07.979Z,7.40
2023-04-09T02:48:35.608Z,7.00
2023-04-09T02:51:03.239Z,3.60
2023-04-09T02:53:30.851Z,6.80
2023-04-09T02:55:58.441Z,9.40
2023-04-09T02:58:26.434Z,7.80
2023-04-09T03:00:54.031Z,7.20
2023-04-09T03:03:21.683Z,1.80
2023-04-09T03:05:49.739Z,6.20
2023-04-09T03:08:17.375Z,6.60
2023-04-09T03:10:44.932Z,6.00
2023-04-09T03:13:12.614Z,7.00
2023-04-09T03:15:40.300Z,6.00
2023-04-09T03:18:07.963Z,3.20
2023-04-09T03:20:36.781Z,3.40
2023-04-09T03:23:04.385Z,6.60
2023-04-09T03:25:31.929Z,3.40
2023-04-09T03:27:59.730Z,6.60
2023-04-09T03:30:27.754Z,9.00
2023-04-09T03:32:55.409Z,7.00
2023-04-09T03:35:23.067Z,6.20
2023-04-09T03:37:50.725Z,7.80
2023-04-09T03:40:18.313Z,10.00
2023-04-09T03:42:46.765Z,8.60
2023-04-09T03:45:14.491Z,6.00
2023-04-09T03:47:42.184Z,9.00
2023-04-09T03:50:09.837Z,9.00
2023-04-09T03:52:37.435Z,6.80
2023-04-09T03:55:05.700Z,8.20
2023-04-09T03:57:33.430Z,6.20
2023-04-09T04:00:01.107Z,7.00
2023-04-09T04:02:31.450Z,5.60
2023-04-09T04:04:59.538Z,3.80
2023-04-09T04:07:27.759Z,6.40
2023-04-09T04:09:55.566Z,6.60
2023-04-09T04:12:23.173Z,4.80
2023-04-09T04:14:50.759Z,7.40
2023-04-09T04:17:18.336Z,6.00
2023-04-09T04:19:46.267Z,6.20
2023-04-09T04:22:14.083Z,6.60
2023-04-09T04:24:41.690Z,1.80
2023-04-09T04:27:09.648Z,6.40
2023-04-09T04:29:37.761Z,8.20
2023-04-09T04:32:05.315Z,3.00
2023-04-09T04:34:32.900Z,6.00
2023-04-09T04:37:00.488Z,6.40
2023-04-09T04:39:28.099Z,7.60
2023-04-09T04:41:55.811Z,6.20
2023-04-09T04:44:23.764Z,7.00
2023-04-09T04:46:51.608Z,6.20
2023-04-09T04:49:19.584Z,7.40
2023-04-09T04:51:47.177Z,4.00
2023-04-09T04:54:14.757Z,6.00
2023-04-09T04:56:42.694Z,5.20
2023-04-09T04:59:10.474Z,3.60
2023-04-09T05:01:38.238Z,9.60
2023-04-09T05:04:05.921Z,6.40
2023-04-09T05:06:33.723Z,6.20
2023-04-09T05:09:01.992Z,4.80
2023-04-09T05:11:30.837Z,3.20
2023-04-09T05:13:58.483Z,6.00
2023-04-09T05:16:26.103Z,6.00
2023-04-09T05:18:54.075Z,9.40
2023-04-09T05:21:22.410Z,7.00
2023-04-09T05:23:50.026Z,0.80
2023-04-09T05:26:17.575Z,4.80
2023-04-09T05:28:45.208Z,6.40
2023-04-09T05:31:13.493Z,5.20
2023-04-09T05:33:41.578Z,3.80
2023-04-09T05:36:09.452Z,8.60
2023-04-09T05:38:37.040Z,4.00
2023-04-09T05:41:04.608Z,8.20
2023-04-09T05:43:32.218Z,11.60
2023-04-09T05:46:00.239Z,10.80
2023-04-09T05:48:28.042Z,7.00
2023-04-09T05:50:56.057Z,10.80
2023-04-09T05:53:23.738Z,13.00
2023-04-09T05:55:51.784Z,13.00
2023-04-09T05:58:20.364Z,7.00
2023-04-09T06:00:47.982Z,9.80
2023-04-09T06:03:15.714Z,12.00
2023-04-09T06:05:43.477Z,9.00
2023-04-09T06:08:11.219Z,16.40
2023-04-09T06:10:41.034Z,12.60
2023-04-09T06:13:09.030Z,4.00
2023-04-09T06:15:36.613Z,11.60
2023-04-09T06:18:04.486Z,13.20
2023-04-09T06:20:32.139Z,11.00
2023-04-09T06:23:00.109Z,9.00
2023-04-09T06:25:27.740Z,12.20
2023-04-09T06:27:55.382Z,12.80
2023-04-09T06:30:23.171Z,10.00
2023-04-09T06:32:55.024Z,6.40
2023-04-09T06:35:23.293Z,13.00
2023-04-09T06:37:51.082Z,12.80
2023-04-09T06:40:20.685Z,11.80
2023-04-09T06:42:49.980Z,12.00
2023-04-09T06:45:17.572Z,12.20
2023-04-09T06:47:45.199Z,10.00
2023-04-09T06:50:12.999Z,13.00
2023-04-09T06:52:40.580Z,11.60
2023-04-09T06:55:08.172Z,13.00
2023-04-09T06:57:35.984Z,12.20
2023-04-09T07:00:04.095Z,5.40
2023-04-09T07:02:31.858Z,6.00
2023-04-09T07:05:01.098Z,9.80
2023-04-09T07:07:28.692Z,12.60
2023-04-09T07:09:56.376Z,13.40
2023-04-09T07:12:24.399Z,11.80
2023-04-09T07:14:52.296Z,13.00
2023-04-09T07:17:19.957Z,2.20
2023-04-09T07:19:47.641Z,6.80
2023-04-09T07:22:15.556Z,13.40
2023-04-09T07:24:43.877Z,12.00
2023-04-09T07:27:11.519Z,9.20
2023-04-09T07:29:39.162Z,0.80
2023-04-09T07:32:06.742Z,12.60
2023-04-09T07:34:34.376Z,10.80
2023-04-09T07:37:02.331Z,11.60
2023-04-09T07:39:29.993Z,6.40
2023-04-09T07:41:57.757Z,12.20
2023-04-09T07:44:25.703Z,0.50
2023-04-09T07:46:53.832Z,4.00
2023-04-09T07:49:22.063Z,7.00
2023-04-09T07:51:49.722Z,12.00
2023-04-09T07:54:17.311Z,15.60
2023-04-09T07:56:44.969Z,12.00
2023-04-09T07:59:12.653Z,11.00
2023-04-09T08:01:40.729Z,8.50
2023-04-09T08:04:08.878Z,10.00
2023-04-09T08:06:37.758Z,10.00
2023-04-09T08:09:05.725Z,10.00
2023-04-09T08:11:33.384Z,12.50
2023-04-09T08:14:03.497Z,12.25
2023-04-09T08:16:31.804Z,12.75
2023-04-09T08:18:59.531Z,12.75
2023-04-09T08:21:27.195Z,9.25
2023-04-09T08:23:59.430Z,10.50
2023-04-09T08:26:27.536Z,11.00
2023-04-09T08:28:55.508Z,12.00
2023-04-09T08:31:23.292Z,8.00
2023-04-09T08:33:51.147Z,6.75
2023-04-09T08:36:18.853Z,0.33
2023-04-09T08:38:47.718Z,6.00
2023-04-09T08:41:15.655Z,7.00
2023-04-09T08:43:57.115Z,8.25
2023-04-09T08:46:26.670Z,1.50
2023-04-09T08:48:54.658Z,4.00
2023-04-09T08:51:23.666Z,7.00
2023-04-09T08:53:53.550Z,8.00
2023-04-09T08:56:22.077Z,7.25
2023-04-09T08:58:49.764Z,6.00
2023-04-09T09:01:17.814Z,6.75
2023-04-09T09:03:45.626Z,7.00
2023-04-09T09:06:13.495Z,2.50
2023-04-09T09:08:41.177Z,7.00
2023-04-09T09:11:08.820Z,6.50
2023-04-09T09:13:37.202Z,7.50
2023-04-09T09:16:05.048Z,7.00
2023-04-09T09:18:32.683Z,4.00
2023-04-09T09:21:00.473Z,1.00
2023-04-09T09:23:28.567Z,7.00
2023-04-09T09:25:56.615Z,7.00
2023-04-09T09:28:24.208Z,6.75
2023-04-09T09:30:51.959Z,5.50
2023-04-09T09:33:19.694Z,7.00
2023-04-09T09:35:48.285Z,7.00
2023-04-09T09:38:16.764Z,6.50
2023-04-09T09:40:44.400Z,6.00
2023-04-09T09:43:14.148Z,6.50
2023-04-09T09:45:43.667Z,5.00
2023-04-09T09:48:11.546Z,4.00
2023-04-09T09:50:40.192Z,7.00
2023-04-09T09:53:07.957Z,4.00
2023-04-09T09:55:35.730Z,4.00
2023-04-09T09:58:04.018Z,5.00
2023-04-09T10:00:31.842Z,2.00
2023-04-09T10:03:00.190Z,7.00
2023-04-09T10:05:29.534Z,9.00
2023-04-09T10:07:57.293Z,4.80
2023-04-09T10:10:25.025Z,9.00
2023-04-09T10:12:52.909Z,6.60
2023-04-09T10:15:21.024Z,6.00
2023-04-09T10:17:48.751Z,7.00
2023-04-09T10:20:16.882Z,7.00
2023-04-09T10:22:44.643Z,9.00
2023-04-09T10:25:12.425Z,5.80
2023-04-09T10:27:40.472Z,7.40
2023-04-09T10:30:10.880Z,6.40
2023-04-09T10:32:38.584Z,4.00
2023-04-09T10:35:07.220Z,7.00
2023-04-09T10:37:35.125Z,7.00
2023-04-09T10:40:03.466Z,7.00
2023-04-09T10:42:33.127Z,7.00
2023-04-09T10:45:01.100Z,6.00
2023-04-09T10:47:29.117Z,7.00
2023-04-09T10:49:56.841Z,7.00
2023-04-09T10:52:24.731Z,2.60
2023-04-09T10:54:52.609Z,9.00
2023-04-09T10:57:20.900Z,6.60
2023-04-09T10:59:48.686Z,8.60
2023-04-09T11:02:16.411Z,7.40
2023-04-09T11:04:44.974Z,6.20
2023-04-09T11:07:13.409Z,4.00
2023-04-09T11:09:41.161Z,9.00
2023-04-09T11:12:08.845Z,6.40
2023-04-09T11:14:36.848Z,7.80
2023-04-09T11:17:04.964Z,3.00
2023-04-09T11:19:32.779Z,7.80
2023-04-09T11:22:00.707Z,7.00
2023-04-09T11:24:28.471Z,8.60
2023-04-09T11:26:56.970Z,1.00
2023-04-09T11:29:24.839Z,9.00
2023-04-09T11:31:52.791Z,7.00
2023-04-09T11:34:20.758Z,7.20
2023-04-09T11:36:48.528Z,7.00
2023-04-09T11:39:16.367Z,8.20
2023-04-09T11:41:44.515Z,7.00
2023-04-09T11:44:12.276Z,8.00
2023-04-09T11:46:40.146Z,8.60
2023-04-09T11:49:08.436Z,9.60
2023-04-09T11:51:36.301Z,10.00
2023-04-09T11:54:04.782Z,10.20
2023-04-09T11:56:32.903Z,6.00
2023-04-09T11:59:00.682Z,8.80
2023-04-09T12:01:28.477Z,8.20
2023-04-09T12:03:56.402Z,8.00
2023-04-09T12:06:25.327Z,7.20
2023-04-09T12:08:53.545Z,6.60
2023-04-09T12:11:21.902Z,4.60
2023-04-09T12:13:49.727Z,8.40
2023-04-09T12:16:17.564Z,6.40
2023-04-09T12:18:45.443Z,7.00
2023-04-09T12:21:13.367Z,7.00
2023-04-09T12:23:41.204Z,6.60
2023-04-09T12:26:09.019Z,8.80
2023-04-09T12:28:37.017Z,9.00
2023-04-09T12:31:05.236Z,9.00
2023-04-09T12:33:34.179Z,1.00
2023-04-09T12:36:02.024Z,7.80
2023-04-09T12:38:29.946Z,9.20
2023-04-09T12:40:57.651Z,9.80
2023-04-09T12:43:25.898Z,7.00
2023-04-09T12:45:54.146Z,3.80
2023-04-09T12:48:22.095Z,4.00
2023-04-09T12:50:50.085Z,6.20
2023-04-09T12:53:17.837Z,6.00
2023-04-09T12:55:46.519Z,6.60
2023-04-09T12:58:14.966Z,6.60
2023-04-09T13:00:42.724Z,8.20
2023-04-09T13:03:10.820Z,6.00
2023-04-09T13:05:38.759Z,9.40
2023-04-09T13:08:07.729Z,9.20
2023-04-09T13:10:35.912Z,7.00
2023-04-09T13:13:03.851Z,6.00
2023-04-09T13:15:31.770Z,6.00
2023-04-09T13:18:00.131Z,6.00
2023-04-09T13:20:28.532Z,7.00
2023-04-09T13:22:56.296Z,9.00
2023-04-09T13:25:24.088Z,8.60
2023-04-09T13:27:51.832Z,6.80
2023-04-09T13:30:19.485Z,7.00
2023-04-09T13:32:47.635Z,5.60
2023-04-09T13:35:15.836Z,5.80
2023-04-09T13:37:43.572Z,7.00
2023-04-09T13:40:11.754Z,7.00
2023-04-09T13:42:39.499Z,7.00
2023-04-09T13:45:07.631Z,7.40
2023-04-09T13:47:35.443Z,6.60
2023-04-09T13:50:03.411Z,7.00
2023-04-09T13:52:31.254Z,9.00
2023-04-09T13:54:59.129Z,7.40
2023-04-09T13:57:27.938Z,7.00
2023-04-09T13:59:55.852Z,7.00
2023-04-09T14:02:23.881Z,6.80
2023-04-09T14:04:52.743Z,6.75
2023-04-09T14:07:20.760Z,4.00
2023-04-09T14:09:48.535Z,4.00
2023-04-09T14:12:16.474Z,4.00
2023-04-09T14:14:44.252Z,8.80
2023-04-09T14:17:11.967Z,6.80
2023-04-09T14:19:39.891Z,7.00
2023-04-09T14:22:09.320Z,4.00
2023-04-09T14:24:40.277Z,7.00
2023-04-09T14:27:08.425Z,6.60
2023-04-09T14:29:36.067Z,6.20
2023-04-09T14:32:03.804Z,4.00
2023-04-09T14:34:31.880Z,4.00
2023-04-09T14:36:59.688Z,5.60
2023-04-09T14:39:27.587Z,5.40
2023-04-09T14:41:57.303Z,7.00
2023-04-09T14:44:26.497Z,5.00
2023-04-09T14:46:55.393Z,8.80
2023-04-09T14:49:23.185Z,6.60
2023-04-09T14:51:50.994Z,5.80
2023-04-09T14:54:18.902Z,5.00
2023-04-09T14:56:46.863Z,7.00
2023-04-09T14:59:15.034Z,8.20
2023-04-09T15:01:43.092Z,9.20
2023-04-09T15:04:11.005Z,8.00
2023-04-09T15:06:38.912Z,9.00
2023-04-09T15:09:07.199Z,7.00
2023-04-09T15:11:35.487Z,6.20
2023-04-09T15:14:03.326Z,9.40
2023-04-09T15:16:33.549Z,7.80
2023-04-09T15:19:02.920Z,8.00
2023-04-09T15:21:31.689Z,8.00
2023-04-09T15:23:59.783Z,1.00
2023-04-09T15:26:28.391Z,8.40
2023-04-09T15:28:56.107Z,5.20
2023-04-09T15:31:24.083Z,2.20
2023-04-09T15:33:52.062Z,6.40
2023-04-09T15:36:20.187Z,9.00
2023-04-09T15:38:48.411Z,4.80
2023-04-09T15:41:17.377Z,7.80
2023-04-09T15:43:45.264Z,4.00
2023-04-09T15:46:13.257Z,6.00
2023-04-09T15:48:42.394Z,7.50
2023-04-09T15:51:11.437Z,5.00
2023-04-09T15:53:39.245Z,9.25
2023-04-09T15:56:07.101Z,7.00
2023-04-09T15:58:36.309Z,6.00
2023-04-09T16:01:04.601Z,5.00
2023-04-09T16:03:37.353Z,6.00
2023-04-09T16:06:07.603Z,3.00
2023-04-09T16:08:35.526Z,0.80
2023-04-09T16:11:03.444Z,3.00
2023-04-09T16:13:31.481Z,6.20
2023-04-09T16:15:59.640Z,4.40
2023-04-09T16:18:27.461Z,4.00
2023-04-09T16:20:55.214Z,7.00
2023-04-09T16:23:24.162Z,6.00
2023-04-09T16:25:52.626Z,5.60
2023-04-09T16:28:21.796Z,6.20
2023-04-09T16:30:49.587Z,5.60
2023-04-09T16:33:17.510Z,4.80
2023-04-09T16:35:45.504Z,5.00
2023-04-09T16:38:13.842Z,5.50
2023-04-09T16:40:41.727Z,4.00
2023-04-09T16:43:09.539Z,6.00
2023-04-09T16:45:37.384Z,3.00
2023-04-09T16:48:06.582Z,5.00
2023-04-09T16:50:34.756Z,5.00
2023-04-09T16:53:04.603Z,6.50
2023-04-09T16:55:32.929Z,6.00
2023-04-09T16:58:00.755Z,5.50
2023-04-09T17:00:29.052Z,1.50
2023-04-09T17:02:58.534Z,1.50
2023-04-09T17:05:26.735Z,5.50
2023-04-09T17:07:54.703Z,2.50
2023-04-09T17:10:22.538Z,7.00
2023-04-09T17:12:50.891Z,8.50
2023-04-09T17:15:19.370Z,6.00
2023-04-09T17:17:51.526Z,10.00
2023-04-09T17:20:19.360Z,9.00
2023-04-09T17:22:47.435Z,5.50
2023-04-09T17:25:15.195Z,3.00
2023-04-09T17:27:45.764Z,6.00
2023-04-09T17:30:14.037Z,1.50
2023-04-09T17:32:43.902Z,5.50
2023-04-09T17:35:11.773Z,4.00
2023-04-09T17:37:39.750Z,1.00
2023-04-09T17:40:08.018Z,4.50
2023-04-09T17:42:35.894Z,3.75
2023-04-09T17:45:04.843Z,5.00
2023-04-09T17:47:32.863Z,3.50
2023-04-09T17:50:01.754Z,6.00
2023-04-09T17:52:30.190Z,4.50
2023-04-09T17:54:58.606Z,3.00
2023-04-09T17:57:26.444Z,1.00
2023-04-09T17:59:54.423Z,4.00
2023-04-09T18:02:22.574Z,4.00
2023-04-09T18:04:51.343Z,3.50
2023-04-09T18:07:19.740Z,4.00
2023-04-09T18:09:47.748Z,5.50
2023-04-09T18:12:16.054Z,3.00
2023-04-09T18:14:44.079Z,3.00
2023-04-09T18:17:14.567Z,3.50
2023-04-09T18:19:43.931Z,5.00
2023-04-09T18:22:11.754Z,7.00
2023-04-09T18:24:40.121Z,5.50
2023-04-09T18:27:08.017Z,3.00
2023-04-09T18:29:36.672Z,3.50
2023-04-09T18:32:04.840Z,3.00
2023-04-09T18:34:32.659Z,4.00
2023-04-09T18:37:00.533Z,3.25
2023-04-09T18:39:28.431Z,4.00
2023-04-09T18:41:57.620Z,3.00
2023-04-09T18:44:26.175Z,0.00
2023-04-09T18:46:54.479Z,4.50
2023-04-09T18:49:22.327Z,3.00
2023-04-09T18:51:50.192Z,3.75
2023-04-09T18:54:18.537Z,7.00
2023-04-09T18:56:46.662Z,3.75
2023-04-09T18:59:14.647Z,5.50
2023-04-09T19:01:42.658Z,4.00
2023-04-09T19:04:10.772Z,4.00
2023-04-09T19:06:39.074Z,4.00
2023-04-09T19:09:08.140Z,3.00
2023-04-09T19:11:35.889Z,0.00
2023-04-09T19:14:03.708Z,3.50
2023-04-09T19:16:31.919Z,4.00
2023-04-09T19:19:00.198Z,3.50
2023-04-09T19:21:29.129Z,4.00
2023-04-09T19:23:57.175Z,6.00
2023-04-09T19:26:25.245Z,3.25
2023-04-09T19:28:53.356Z,6.00
2023-04-09T19:31:21.884Z,4.00
2023-04-09T19:33:49.993Z,3.50
2023-04-09T19:36:17.764Z,3.00
2023-04-09T19:38:45.621Z,1.00
2023-04-09T19:41:13.537Z,3.50
2023-04-09T19:43:42.636Z,5.20
2023-04-09T19:46:10.569Z,6.00
2023-04-09T19:48:38.472Z,4.00
2023-04-09T19:51:07.155Z,7.00
2023-04-09T19:53:36.682Z,6.00
2023-04-09T19:56:04.899Z,7.00
2023-04-09T19:58:33.963Z,7.40
2023-04-09T20:01:02.557Z,7.00
2023-04-09T20:03:30.724Z,3.40
2023-04-09T20:05:58.794Z,7.00
2023-04-09T20:08:26.882Z,7.40
2023-04-09T20:10:54.894Z,1.40
2023-04-09T20:13:23.664Z,9.60
2023-04-09T20:15:51.922Z,3.00
2023-04-09T20:18:19.785Z,6.20
2023-04-09T20:20:48.122Z,7.80
2023-04-09T20:23:16.308Z,3.80
2023-04-09T20:25:44.075Z,7.80
2023-04-09T20:28:11.989Z,6.60
2023-04-09T20:30:39.936Z,8.20
2023-04-09T20:33:07.853Z,6.80
2023-04-09T20:35:37.754Z,7.00
2023-04-09T20:38:05.679Z,9.20
2023-04-09T20:40:33.510Z,8.60
2023-04-09T20:43:01.411Z,10.60
2023-04-09T20:45:29.821Z,8.60
2023-04-09T20:47:58.047Z,12.60
2023-04-09T20:50:26.133Z,7.00
2023-04-09T20:52:54.117Z,9.80
2023-04-09T20:55:23.311Z,10.00
2023-04-09T20:57:53.657Z,7.40
2023-04-09T21:00:24.861Z,5.60
2023-04-09T21:02:54.398Z,11.40
2023-04-09T21:05:24.355Z,4.80
2023-04-09T21:07:54.818Z,11.20
2023-04-09T21:10:23.525Z,7.40
2023-04-09T21:12:51.399Z,7.00
2023-04-09T21:15:19.437Z,9.40
2023-04-09T21:17:47.386Z,7.80
2023-04-09T21:20:17.669Z,5.20
2023-04-09T21:22:45.898Z,7.00
2023-04-09T21:25:15.353Z,3.80
2023-04-09T21:27:43.585Z,5.60
2023-04-09T21:30:11.544Z,3.60
2023-04-09T21:32:39.878Z,7.00
2023-04-09T21:35:07.961Z,3.00
2023-04-09T21:37:35.900Z,10.80
2023-04-09T21:40:04.286Z,7.00
2023-04-09T21:42:32.866Z,9.20
2023-04-09T21:45:02.361Z,9.40
2023-04-09T21:47:30.609Z,12.40
2023-04-09T21:49:58.840Z,6.80
2023-04-09T21:52:26.610Z,11.20
2023-04-09T21:54:54.418Z,9.80
2023-04-09T21:57:23.261Z,7.00
2023-04-09T21:59:51.502Z,12.80
2023-04-09T22:02:19.587Z,15.00
2023-04-09T22:04:47.513Z,11.60
2023-04-09T22:07:15.620Z,6.60
2023-04-09T22:09:43.817Z,12.20
2023-04-09T22:12:12.306Z,10.00
2023-04-09T22:14:41.774Z,7.40
2023-04-09T22:17:09.737Z,12.60
2023-04-09T22:19:37.585Z,11.60
2023-04-09T22:22:05.731Z,8.20
2023-04-09T22:24:35.137Z,11.20
2023-04-09T22:27:02.970Z,12.00
2023-04-09T22:29:30.768Z,11.60
2023-04-09T22:31:58.614Z,12.20
2023-04-09T22:34:26.683Z,9.40
2023-04-09T22:36:54.503Z,15.40
2023-04-09T22:39:22.906Z,8.60
2023-04-09T22:41:50.638Z,12.00
2023-04-09T22:44:18.434Z,15.80
2023-04-09T22:46:47.025Z,15.80
2023-04-09T22:49:14.947Z,18.00
2023-04-09T22:51:42.823Z,13.40
2023-04-09T22:54:12.178Z,16.80
2023-04-09T22:56:41.114Z,16.60
2023-04-09T22:59:11.330Z,22.00
2023-04-09T23:01:40.043Z,25.40
2023-04-09T23:04:08.002Z,27.60
2023-04-09T23:06:36.196Z,18.80
2023-04-09T23:09:04.412Z,16.40
2023-04-09T23:11:32.822Z,23.40
2023-04-09T23:14:00.678Z,32.20
2023-04-09T23:16:28.410Z,31.00
2023-04-09T23:18:56.485Z,34.40
2023-04-09T23:21:24.516Z,33.60
2023-04-09T23:23:52.882Z,36.80
2023-04-09T23:26:20.924Z,33.00
2023-04-09T23:28:48.718Z,35.60
2023-04-09T23:31:16.376Z,28.00
2023-04-09T23:33:44.109Z,18.40
2023-04-09T23:36:12.237Z,15.00
2023-04-09T23:38:41.157Z,20.60
2023-04-09T23:41:08.833Z,20.20
2023-04-09T23:43:36.511Z,18.20
2023-04-09T23:46:04.170Z,14.40
2023-04-09T23:48:32.184Z,19.40
2023-04-09T23:51:01.206Z,19.80
2023-04-09T23:53:28.826Z,21.20
2023-04-09T23:55:56.524Z,18.80
2023-04-09T23:58:24.241Z,20.60
